Airfield :
LOGIN :

Register | Disclaimer

   EN    FR    IT 

 










Legend :    VFR   Marginal VFR   IFR   Intensive IFR   Very Intensive IFR
Visi :
Ceiling :
>= 8 km
>= 3000ft
5 to 8 km
1000 to 3000 ft
1500m to 5 km
500 to 1000 ft
800 to 1500m
200 to 500 ft
< 800m
< 200 ft
Symbols :   Thunderstorms  Fog  Heavy snow  Heavy precipitations  Wind > 20 kt
SIGMETs :     Misc.  Thunderstorms  Icing  Turbulence  Mountain Waves  Volcanic Ashes






- Airport Elevation : 433 ft
- IATA code : CCF


LFMK - Carcassonne

CURRENT METAR :
  • 221000Z AUTO 11009KT 070V150 4500 +RA BR FEW007/// BKN016/// BKN021/// ///CB 08/07 Q1025 TEMPO 10020G35KT TSRA BKN009 SCT018CB

EXPIRED METARs :
  • 220930Z AUTO 11010KT 070V150 3800 +RA BR SCT010/// BKN015/// OVC025/// ///CB 08/07 Q1026 TEMPO 10020G35KT TSRA BKN010 SCT018CB
  • 220900Z AUTO 10010G22KT 060V160 4000 +RA BR BKN009/// OVC013/// ///CB 08/07 Q1025 TEMPO 10020G35KT TSRA BKN010 SCT018CB
  • 220830Z AUTO 10009KT 070V140 5000 -RA BR BKN008/// OVC014/// ///CB 08/07 Q1025 TEMPO 10020G40KT TSRA BKN014 SCT020CB OVC020
  • 220800Z AUTO 10010KT 060V150 4500 RA BR OVC011/// ///CB 08/07 Q1025 TEMPO 10020G40KT TSRA
  • 220730Z AUTO 10011KT 070V140 7000 RA FEW009/// OVC015/// ///CB 08/07 Q1024 TEMPO 10020G40KT 4000 TSRA BKN014 SCT020CB OVC020

TAF AMD TAF LFMK
Valid from the 22 at 09:00 until the 23 at 09:00 UTC


220918Z 2209/2309 10012KT 9999 BKN025
TEMPO 2209/2215 10020G35KT RA BKN015 SCT020TCU
PROB40
TEMPO 2209/2213 4000 TSRA BKN009 SCT018CB
TEMPO 2215/2309 09025G40KT RA BKN015
PROB30
TEMPO 2306/2309 4000 TSRA BKN012 SCT018CB



MET'MAP, your aeronautical weather chart ! - Copyright ORBIFLY December 2007 - Disclaimer

ORBIFLY MET'MAP TEAM :

Programming & Development : Alexandra Zaïnal
Concept & original design : Baudouin d'Aumeries
Assistance for programming : Marc-Olivier Méhu
Technical & hardware support : Manuel Goepfert

Contact : metmap@orbifly.com




SOURCES & CREDITS :

   NOAA